createdAt,value
2023-04-25T00:00:16.827Z,49.5
2023-04-25T00:05:16.996Z,49.4
2023-04-25T00:10:16.970Z,49.4
2023-04-25T00:15:16.826Z,49.3
2023-04-25T00:20:19.747Z,49.3
2023-04-25T00:25:16.825Z,49.3
2023-04-25T00:30:19.798Z,49.3
2023-04-25T00:35:16.830Z,49.3
2023-04-25T00:40:19.816Z,49.3
2023-04-25T00:45:16.894Z,49.3
2023-04-25T00:50:19.859Z,49.3
2023-04-25T00:55:16.988Z,49.3
2023-04-25T01:00:19.853Z,49.4
2023-04-25T01:05:19.820Z,49.4
2023-04-25T01:10:19.808Z,49.5
2023-04-25T01:15:19.851Z,49.5
2023-04-25T01:20:19.841Z,49.5
2023-04-25T01:25:16.875Z,49.4
2023-04-25T01:30:16.830Z,49.4
2023-04-25T01:35:19.869Z,49.4
2023-04-25T01:40:19.832Z,49.4
2023-04-25T01:45:19.819Z,49.4
2023-04-25T01:50:16.918Z,49.4
2023-04-25T01:55:19.829Z,49.4
2023-04-25T02:00:16.904Z,49.4
2023-04-25T02:05:19.842Z,49.3
2023-04-25T02:10:19.823Z,49.3
2023-04-25T02:15:16.869Z,49.3
2023-04-25T02:20:19.867Z,49.2
2023-04-25T02:25:19.936Z,49.2
2023-04-25T02:30:19.813Z,49.2
2023-04-25T02:35:19.869Z,49.2
2023-04-25T02:40:19.848Z,49.1
2023-04-25T02:45:19.903Z,49.1
2023-04-25T02:50:19.898Z,49.1
2023-04-25T02:55:19.942Z,49.1
2023-04-25T03:00:16.916Z,49.1
2023-04-25T03:05:16.888Z,49.1
2023-04-25T03:10:19.905Z,49.0
2023-04-25T03:15:16.987Z,49.0
2023-04-25T03:20:19.873Z,48.9
2023-04-25T03:25:19.911Z,48.8
2023-04-25T03:30:16.953Z,48.7
2023-04-25T03:35:17.000Z,48.7
2023-04-25T03:40:19.905Z,48.5
2023-04-25T03:45:16.799Z,48.4
2023-04-25T03:50:19.984Z,48.3
2023-04-25T03:55:17.785Z,48.3
2023-04-25T04:00:16.198Z,48.1
2023-04-25T04:05:19.254Z,48.0
2023-04-25T04:10:19.143Z,47.9
2023-04-25T04:15:16.220Z,47.9
2023-04-25T04:20:16.246Z,47.8
2023-04-25T04:25:19.213Z,47.8
2023-04-25T04:30:19.160Z,47.7
2023-04-25T04:35:19.131Z,47.7
2023-04-25T04:40:16.371Z,47.8
2023-04-25T04:45:16.234Z,47.8
2023-04-25T04:50:19.203Z,47.9
2023-04-25T04:55:19.187Z,47.9
2023-04-25T05:00:19.219Z,47.9
2023-04-25T05:05:16.184Z,47.9
2023-04-25T05:10:19.208Z,47.8
2023-04-25T05:15:19.129Z,47.7
2023-04-25T05:20:19.174Z,47.7
2023-04-25T05:25:16.259Z,47.6
2023-04-25T05:30:19.183Z,47.6
2023-04-25T05:35:19.248Z,47.5
2023-04-25T05:40:16.206Z,47.5
2023-04-25T05:45:19.205Z,47.5
2023-04-25T05:50:19.189Z,47.5
2023-04-25T05:55:16.243Z,47.5
2023-04-25T06:00:16.231Z,47.5
2023-04-25T06:05:19.278Z,47.5
2023-04-25T06:10:19.238Z,47.5
2023-04-25T06:15:27.233Z,47.5
2023-04-25T06:20:16.217Z,47.5
2023-04-25T06:25:19.228Z,47.4
2023-04-25T06:30:19.339Z,47.4
2023-04-25T06:35:19.263Z,47.3
2023-04-25T06:40:19.213Z,47.2
2023-04-25T06:45:19.195Z,47.2
2023-04-25T06:50:16.252Z,47.2
2023-04-25T06:55:19.315Z,47.2
2023-04-25T07:00:19.321Z,47.1
2023-04-25T07:05:17.478Z,47.1
2023-04-25T07:10:19.290Z,47.2
2023-04-25T07:15:19.271Z,47.2
2023-04-25T07:20:16.348Z,47.1
2023-04-25T07:25:19.258Z,47.1
2023-04-25T07:30:19.260Z,47.1
2023-04-25T07:35:16.325Z,47.1
2023-04-25T07:40:16.335Z,47.1
2023-04-25T07:45:19.276Z,47.0
2023-04-25T07:50:19.285Z,47.0
2023-04-25T07:55:16.336Z,47.0
2023-04-25T08:00:19.380Z,46.9
2023-04-25T08:05:21.445Z,47.0
2023-04-25T08:10:16.367Z,46.9
2023-04-25T08:15:19.342Z,46.9
2023-04-25T08:20:19.259Z,46.9
2023-04-25T08:25:16.378Z,46.9
2023-04-25T08:30:19.305Z,46.9
2023-04-25T08:35:19.323Z,46.8
2023-04-25T08:40:19.330Z,46.8
2023-04-25T08:45:19.351Z,46.8
2023-04-25T08:50:19.286Z,46.8
2023-04-25T08:55:19.306Z,46.9
2023-04-25T09:00:16.305Z,46.9
2023-04-25T09:05:21.598Z,47.0
2023-04-25T09:10:19.457Z,47.0
2023-04-25T09:15:24.765Z,47.0
2023-04-25T09:20:19.366Z,46.9
2023-04-25T09:25:19.309Z,46.8
2023-04-25T09:30:16.380Z,46.7
2023-04-25T09:35:19.305Z,46.5
2023-04-25T09:40:16.309Z,46.4
2023-04-25T09:45:16.241Z,46.3
2023-04-25T09:50:19.414Z,46.3
2023-04-25T09:55:16.342Z,46.4
2023-04-25T10:00:19.390Z,46.4
2023-04-25T10:05:16.512Z,46.3
2023-04-25T10:10:19.323Z,46.3
2023-04-25T10:15:19.276Z,46.3
2023-04-25T10:20:19.294Z,46.3
2023-04-25T10:25:19.309Z,46.3
2023-04-25T10:30:16.880Z,46.2
2023-04-25T10:35:19.400Z,46.2
2023-04-25T10:40:16.421Z,46.2
2023-04-25T10:45:19.374Z,46.3
2023-04-25T10:50:16.503Z,46.3
2023-04-25T10:55:19.358Z,46.4
2023-04-25T11:00:16.544Z,46.5
2023-04-25T11:05:21.314Z,46.6
2023-04-25T11:10:19.437Z,46.7
2023-04-25T11:15:16.363Z,46.9
2023-04-25T11:20:19.516Z,47.0
2023-04-25T11:25:19.417Z,47.1
2023-04-25T11:30:19.404Z,47.2
2023-04-25T11:35:19.818Z,47.3
2023-04-25T11:40:16.369Z,47.5
2023-04-25T11:45:19.392Z,47.7
2023-04-25T11:50:19.459Z,48.0
2023-04-25T11:55:19.376Z,48.4
2023-04-25T12:00:18.656Z,48.7
2023-04-25T12:05:31.127Z,48.9
2023-04-25T12:10:16.390Z,49.1
2023-04-25T12:15:19.402Z,49.4
2023-04-25T12:20:19.396Z,49.8
2023-04-25T12:25:16.437Z,49.9
2023-04-25T12:30:16.391Z,50.1
2023-04-25T12:35:16.432Z,50.5
2023-04-25T12:40:19.468Z,50.7
2023-04-25T12:45:19.428Z,50.8
2023-04-25T12:50:19.428Z,51.0
2023-04-25T12:55:19.448Z,51.0
2023-04-25T13:00:19.481Z,51.5
2023-04-25T13:05:16.471Z,51.9
2023-04-25T13:10:19.475Z,52.3
2023-04-25T13:15:16.471Z,52.4
2023-04-25T13:20:19.440Z,52.9
2023-04-25T13:25:19.401Z,53.7
2023-04-25T13:30:19.386Z,53.6
2023-04-25T13:35:19.402Z,53.0
2023-04-25T13:40:19.385Z,53.1
2023-04-25T13:45:16.349Z,52.7
2023-04-25T13:50:19.451Z,53.3
2023-04-25T13:55:19.377Z,53.2
2023-04-25T14:00:19.476Z,52.6
2023-04-25T14:05:16.519Z,53.2
2023-04-25T14:10:19.430Z,53.9
2023-04-25T14:15:16.476Z,54.2
2023-04-25T14:20:19.445Z,54.6
2023-04-25T14:25:19.449Z,54.4
2023-04-25T14:30:19.515Z,55.4
2023-04-25T14:35:19.476Z,55.1
2023-04-25T14:40:16.542Z,55.2
2023-04-25T14:45:19.445Z,57.4
2023-04-25T14:50:19.441Z,57.5
2023-04-25T14:55:19.404Z,56.3
2023-04-25T15:00:19.574Z,56.3
2023-04-25T15:05:16.527Z,58.1
2023-04-25T15:10:19.527Z,58.3
2023-04-25T15:15:25.597Z,59.6
2023-04-25T15:20:16.489Z,60.1
2023-04-25T15:25:19.534Z,59.7
2023-04-25T15:30:16.484Z,58.2
2023-04-25T15:35:19.492Z,57.8
2023-04-25T15:40:19.502Z,58.7
2023-04-25T15:45:16.476Z,58.1
2023-04-25T15:50:19.506Z,58.6
2023-04-25T15:55:19.437Z,60.2
2023-04-25T16:00:16.505Z,61.1
2023-04-25T16:05:19.639Z,61.5
2023-04-25T16:10:16.504Z,60.1
2023-04-25T16:15:19.717Z,59.5
2023-04-25T16:20:19.694Z,59.2
2023-04-25T16:25:16.517Z,59.8
2023-04-25T16:30:16.569Z,60.2
2023-04-25T16:35:19.593Z,60.8
2023-04-25T16:40:19.545Z,61.8
2023-04-25T16:45:19.481Z,60.1
2023-04-25T16:50:19.526Z,61.3
2023-04-25T16:55:19.552Z,64.2
2023-04-25T17:00:16.481Z,64.4
2023-04-25T17:05:19.560Z,62.2
2023-04-25T17:10:19.605Z,63.3
2023-04-25T17:15:19.588Z,63.2
2023-04-25T17:20:19.478Z,63.4
2023-04-25T17:25:16.593Z,61.9
2023-04-25T17:30:19.526Z,61.7
2023-04-25T17:35:19.500Z,62.3
2023-04-25T17:40:19.594Z,61.4
2023-04-25T17:45:19.505Z,60.7
2023-04-25T17:50:16.573Z,60.5
2023-04-25T17:55:16.579Z,59.3
2023-04-25T18:00:19.658Z,58.0
2023-04-25T18:05:19.634Z,57.7
2023-04-25T18:10:19.493Z,59.0
2023-04-25T18:15:19.494Z,58.6
2023-04-25T18:20:16.416Z,58.1
2023-04-25T18:25:19.649Z,57.9
2023-04-25T18:30:16.634Z,57.3
2023-04-25T18:35:19.593Z,56.2
2023-04-25T18:40:19.601Z,56.9
2023-04-25T18:45:19.534Z,57.1
2023-04-25T18:50:19.567Z,56.3
2023-04-25T18:55:19.612Z,55.8
2023-04-25T19:00:16.568Z,55.0
2023-04-25T19:05:19.578Z,54.5
2023-04-25T19:10:19.700Z,54.5
2023-04-25T19:15:19.600Z,54.2
2023-04-25T19:20:16.658Z,53.8
2023-04-25T19:25:19.619Z,54.4
2023-04-25T19:30:19.790Z,54.4
2023-04-25T19:35:16.573Z,54.1
2023-04-25T19:40:16.896Z,54.1
2023-04-25T19:45:16.609Z,53.8
2023-04-25T19:50:19.630Z,53.5
2023-04-25T19:55:16.616Z,53.6
2023-04-25T20:00:18.566Z,54.0
2023-04-25T20:05:16.636Z,54.1
2023-04-25T20:10:19.625Z,53.6
2023-04-25T20:15:19.640Z,53.0
2023-04-25T20:20:19.672Z,53.2
2023-04-25T20:25:19.656Z,53.2
2023-04-25T20:30:16.629Z,52.8
2023-04-25T20:35:19.593Z,52.9
2023-04-25T20:40:19.651Z,53.3
2023-04-25T20:45:19.614Z,53.7
2023-04-25T20:50:19.607Z,53.6
2023-04-25T20:55:19.667Z,53.4
2023-04-25T21:00:16.691Z,53.5
2023-04-25T21:05:19.695Z,53.0
2023-04-25T21:10:19.596Z,52.8
2023-04-25T21:15:19.598Z,52.8
2023-04-25T21:20:19.607Z,52.9
2023-04-25T21:25:16.655Z,52.9
2023-04-25T21:30:16.682Z,53.3
2023-04-25T21:35:16.596Z,53.2
2023-04-25T21:40:19.682Z,52.9
2023-04-25T21:45:19.658Z,52.8
2023-04-25T21:50:16.697Z,52.7
2023-04-25T21:55:16.701Z,52.7
2023-04-25T22:00:19.747Z,52.8
2023-04-25T22:05:16.757Z,53.0
2023-04-25T22:10:19.658Z,52.9
2023-04-25T22:15:19.680Z,52.9
2023-04-25T22:20:16.698Z,52.9
2023-04-25T22:25:19.724Z,52.7
2023-04-25T22:30:16.687Z,52.7
2023-04-25T22:35:16.704Z,52.7
2023-04-25T22:40:16.762Z,52.6
2023-04-25T22:45:16.700Z,52.4
2023-04-25T22:50:19.686Z,52.4
2023-04-25T22:55:16.558Z,52.3
2023-04-25T23:00:16.878Z,52.3
2023-04-25T23:05:16.747Z,52.3
2023-04-25T23:10:19.746Z,52.3
2023-04-25T23:15:16.760Z,52.2
2023-04-25T23:20:16.756Z,52.1
2023-04-25T23:25:19.713Z,51.9
2023-04-25T23:30:19.697Z,51.7
2023-04-25T23:35:16.810Z,51.4
2023-04-25T23:40:19.885Z,51.1
2023-04-25T23:45:19.686Z,50.9
2023-04-25T23:50:19.719Z,50.7
2023-04-25T23:55:19.815Z,50.5
